Time;durP1;ratioP1;P1;durP2;ratioP2;P2;SDS_P1;SDS_P2;PMS_P1;PMS_P2;Temp;Humidity;BMP_temperature;BMP_pressure;BME280_temperature;BME280_humidity;BME280_pressure;Samples;Min_cycle;Max_cycle;Signal;HPM_P1;HPM_P2
2022/12/24 00:00:41;;;;;;;3.58;1.75;;;;;;;10.06;100.00;98050.72;4187830;28;20213;-47
2022/12/24 00:02:43;;;;;;;2.38;1.10;;;;;;;10.03;100.00;98061.31;4182628;28;20679;-48
2022/12/24 00:04:45;;;;;;;4.32;1.40;;;;;;;10.01;100.00;98058.03;4204173;28;20217;-48
2022/12/24 00:06:47;;;;;;;1.63;1.27;;;;;;;9.94;100.00;98063.66;4196973;28;20239;-49
2022/12/24 00:08:50;;;;;;;3.65;1.33;;;;;;;9.94;100.00;98068.34;4216492;27;20241;-48
2022/12/24 00:10:53;;;;;;;2.90;1.38;;;;;;;9.96;100.00;98066.16;4202909;28;20230;-48
2022/12/24 00:12:54;;;;;;;4.57;1.40;;;;;;;9.96;100.00;98050.56;4202159;28;20202;-48
2022/12/24 00:14:56;;;;;;;4.10;1.90;;;;;;;9.89;100.00;98062.81;4214852;27;20214;-47
2022/12/24 00:16:58;;;;;;;1.80;1.25;;;;;;;9.97;100.00;98051.41;4204490;28;20301;-48
2022/12/24 00:19:00;;;;;;;3.35;1.20;;;;;;;9.88;100.00;98061.16;4199064;28;20291;-48
2022/12/24 00:21:02;;;;;;;2.90;1.98;;;;;;;9.87;100.00;98068.50;4199718;28;20317;-49
2022/12/24 00:23:04;;;;;;;3.30;0.95;;;;;;;9.91;100.00;98068.81;4201650;28;20206;-48
2022/12/24 00:25:06;;;;;;;6.55;2.25;;;;;;;9.83;100.00;98075.56;4197902;28;20241;-48
2022/12/24 00:27:08;;;;;;;7.32;1.80;;;;;;;9.86;100.00;98082.44;4200893;28;20217;-48
2022/12/24 00:29:10;;;;;;;2.38;1.70;;;;;;;9.81;100.00;98090.59;4200481;28;20259;-48
2022/12/24 00:31:14;;;;;;;4.55;1.70;;;;;;;9.77;100.00;98095.75;4199025;28;20349;-49
2022/12/24 00:33:16;;;;;;;4.03;1.63;;;;;;;9.79;100.00;98087.25;4204729;28;20210;-48
2022/12/24 00:35:24;;;;;;;3.03;1.48;;;;;;;9.81;100.00;98096.06;4201515;28;20233;-48
2022/12/24 00:37:26;;;;;;;2.97;1.52;;;;;;;9.79;100.00;98103.66;4214218;27;20229;-49
2022/12/24 00:39:28;;;;;;;3.20;1.95;;;;;;;9.79;100.00;98087.25;4200266;28;21092;-47
2022/12/24 00:41:30;;;;;;;6.95;2.45;;;;;;;9.71;100.00;98094.03;4185011;28;20227;-48
2022/12/24 00:43:31;;;;;;;2.55;1.30;;;;;;;9.74;100.00;98092.69;4216697;27;20206;-48
2022/12/24 00:45:33;;;;;;;1.67;1.45;;;;;;;9.73;100.00;98080.94;4201818;28;20226;-47
2022/12/24 00:47:35;;;;;;;8.23;2.20;;;;;;;9.71;100.00;98085.00;4196587;28;20670;-48
2022/12/24 00:49:37;;;;;;;5.95;1.60;;;;;;;9.69;100.00;98090.69;4204169;28;20261;-48
2022/12/24 00:51:39;;;;;;;2.97;1.63;;;;;;;9.72;100.00;98086.63;4195923;28;20242;-48
2022/12/24 00:53:41;;;;;;;13.75;3.00;;;;;;;9.70;100.00;98091.53;4216783;28;20198;-48
2022/12/24 00:55:42;;;;;;;2.33;1.65;;;;;;;9.65;100.00;98091.47;4198433;28;20226;-48
2022/12/24 00:57:44;;;;;;;3.78;1.70;;;;;;;9.68;100.00;98096.44;4199972;28;20214;-48
2022/12/24 00:59:46;;;;;;;5.53;1.33;;;;;;;9.65;100.00;98102.41;4217289;28;20224;-49
2022/12/24 01:01:47;;;;;;;2.50;1.50;;;;;;;9.65;100.00;98091.47;4195778;28;20250;-48
2022/12/24 01:03:50;;;;;;;4.30;1.85;;;;;;;9.62;100.00;98095.53;4187989;28;20243;-47
2022/12/24 01:05:52;;;;;;;8.85;1.58;;;;;;;9.66;100.00;98093.13;4199969;28;20211;-48
2022/12/24 01:07:54;;;;;;;4.45;1.60;;;;;;;9.65;100.00;98103.22;4199569;28;20230;-49
2022/12/24 01:09:55;;;;;;;3.30;1.88;;;;;;;9.58;100.00;98112.69;4215221;28;20607;-48
2022/12/24 01:11:57;;;;;;;2.55;1.50;;;;;;;9.62;100.00;98119.31;4215516;28;20716;-48
2022/12/24 01:13:59;;;;;;;4.50;2.00;;;;;;;9.55;100.00;98118.66;4195313;28;21211;-49
2022/12/24 01:16:01;;;;;;;5.05;2.28;;;;;;;9.55;100.00;98126.88;4180746;28;20211;-49
2022/12/24 01:18:02;;;;;;;2.83;1.25;;;;;;;9.49;100.00;98136.06;4204484;28;20310;-49
2022/12/24 01:20:07;;;;;;;2.30;1.25;;;;;;;9.49;100.00;98127.88;4196507;28;20208;-48
2022/12/24 01:22:08;;;;;;;3.60;2.70;;;;;;;9.50;100.00;98133.09;4200365;28;20298;-48
2022/12/24 01:24:14;;;;;;;5.93;1.98;;;;;;;9.49;100.00;98141.53;4219091;27;20246;-48
2022/12/24 01:26:16;;;;;;;1.70;1.23;;;;;;;9.53;100.00;98156.31;4201861;28;20233;-48
2022/12/24 01:28:19;;;;;;;3.30;1.38;;;;;;;9.45;100.00;98149.41;4219109;27;20221;-48
2022/12/24 01:30:20;;;;;;;4.93;1.10;;;;;;;9.43;100.00;98145.25;4206169;28;20305;-48
2022/12/24 01:32:22;;;;;;;2.20;1.45;;;;;;;9.51;100.00;98170.25;4206852;28;20751;-48
2022/12/24 01:34:24;;;;;;;2.80;1.85;;;;;;;9.45;100.00;98168.50;4204860;28;20213;-47
2022/12/24 01:36:26;;;;;;;6.75;2.15;;;;;;;9.45;100.00;98167.69;4196974;28;20347;-49
2022/12/24 01:38:27;;;;;;;4.38;1.50;;;;;;;9.36;100.00;98169.19;4206653;28;20270;-48
2022/12/24 01:45:45;;;;;;;2.47;1.70;;;;;;;9.32;100.00;98157.09;4219624;27;20627;-47
2022/12/24 01:47:46;;;;;;;2.95;1.58;;;;;;;9.38;100.00;98158.84;4200048;28;20194;-47
2022/12/24 01:49:52;;;;;;;4.25;1.50;;;;;;;9.34;100.00;98149.50;4188078;28;20301;-47
2022/12/24 01:51:59;;;;;;;2.72;2.08;;;;;;;9.34;100.00;98149.50;4216865;27;20313;-48
2022/12/24 01:54:09;;;;;;;6.80;1.73;;;;;;;9.36;100.00;98158.28;4201912;28;20264;-48
2022/12/24 01:56:11;;;;;;;3.30;1.63;;;;;;;9.35;100.00;98162.09;4205245;28;20297;-48
2022/12/24 01:58:15;;;;;;;6.68;2.00;;;;;;;9.30;100.00;98160.09;4204869;28;20229;-48
2022/12/24 02:00:17;;;;;;;5.30;1.95;;;;;;;9.32;100.00;98163.41;4198634;28;20260;-47
2022/12/24 02:02:20;;;;;;;5.15;1.60;;;;;;;9.34;100.00;98163.16;4218886;27;20203;-47
2022/12/24 02:04:39;;;;;;;2.30;1.90;;;;;;;9.38;100.00;98150.63;4219011;28;20198;-48
2022/12/24 02:06:41;;;;;;;5.00;1.27;;;;;;;9.32;100.00;98152.47;4207615;28;20281;-49
2022/12/24 02:08:44;;;;;;;3.13;1.10;;;;;;;9.44;100.00;98149.63;4204751;28;20333;-49
2022/12/24 02:10:46;;;;;;;2.22;1.45;;;;;;;9.41;100.00;98145.50;4202961;28;20656;-48
2022/12/24 02:12:49;;;;;;;2.67;1.50;;;;;;;9.38;100.00;98161.56;4201430;28;22075;-48
2022/12/24 02:14:51;;;;;;;1.50;1.30;;;;;;;9.38;100.00;98159.69;4200206;28;20289;-47
2022/12/24 02:17:23;;;;;;;2.42;1.55;;;;;;;9.28;100.00;98153.25;4202662;28;20534;-48
2022/12/24 02:19:34;;;;;;;3.25;1.38;;;;;;;9.29;100.00;98163.06;4203919;28;20697;-48
2022/12/24 02:21:54;;;;;;;6.50;2.33;;;;;;;9.32;100.00;98184.41;4200196;28;20329;-48
2022/12/24 02:23:58;;;;;;;2.28;1.52;;;;;;;9.32;100.00;98178.94;4208523;28;20213;-48
2022/12/24 02:26:28;;;;;;;3.03;1.60;;;;;;;9.21;100.00;98182.63;4204920;28;20260;-48
2022/12/24 02:28:29;;;;;;;3.13;2.08;;;;;;;9.22;100.00;98189.72;4204153;28;20317;-47
2022/12/24 02:30:57;;;;;;;6.72;2.85;;;;;;;9.23;100.00;98180.47;4206441;28;20238;-47
2022/12/24 02:33:08;;;;;;;9.43;1.63;;;;;;;9.24;100.00;98187.56;4195710;28;20270;-48
2022/12/24 02:35:22;;;;;;;2.17;1.67;;;;;;;9.29;100.00;98190.38;4198504;28;20253;-49
2022/12/24 02:37:25;;;;;;;5.18;1.92;;;;;;;9.34;100.00;98185.00;4201361;28;20246;-49
2022/12/24 02:39:42;;;;;;;3.35;1.88;;;;;;;9.26;100.00;98185.41;4202271;28;20629;-48
2022/12/24 02:42:07;;;;;;;3.92;1.80;;;;;;;9.30;100.00;98184.69;4215532;27;20198;-48
2022/12/24 02:44:09;;;;;;;6.70;1.88;;;;;;;9.30;100.00;98181.09;4187232;28;20208;-48
2022/12/24 02:46:18;;;;;;;4.60;2.15;;;;;;;9.34;100.00;98193.19;4187497;28;20216;-49
2022/12/24 02:48:20;;;;;;;4.78;2.42;;;;;;;9.21;100.00;98197.06;4202363;28;21806;-48
2022/12/24 02:50:22;;;;;;;3.50;2.60;;;;;;;9.27;100.00;98189.78;4202404;28;20293;-48
2022/12/24 02:52:32;;;;;;;3.97;1.75;;;;;;;9.29;100.00;98196.66;4200508;28;20945;-48
2022/12/24 02:54:33;;;;;;;6.15;2.13;;;;;;;9.30;100.00;98189.31;4204964;28;20211;-49
2022/12/24 02:57:12;;;;;;;5.93;2.50;;;;;;;9.37;100.00;98198.16;4217698;27;20206;-48
2022/12/24 02:59:23;;;;;;;4.20;1.55;;;;;;;9.28;100.00;98205.13;4205573;28;20305;-47
2022/12/24 03:02:04;;;;;;;3.67;1.90;;;;;;;9.43;100.00;98197.16;4201421;28;20574;-48
2022/12/24 03:04:19;;;;;;;11.18;1.75;;;;;;;9.38;100.00;98200.63;4216215;28;20206;-48
2022/12/24 03:06:31;;;;;;;1.83;1.52;;;;;;;9.40;100.00;98198.47;4215037;28;20205;-48
2022/12/24 03:08:51;;;;;;;3.17;1.20;;;;;;;9.34;100.00;98194.00;4216874;27;20230;-47
2022/12/24 03:10:56;;;;;;;4.28;2.10;;;;;;;9.41;100.00;98210.22;4215307;27;20202;-48
2022/12/24 03:13:03;;;;;;;3.85;1.70;;;;;;;9.41;100.00;98211.03;4205356;28;20808;-48
2022/12/24 03:15:07;;;;;;;10.52;2.88;;;;;;;9.44;100.00;98220.63;4216573;27;20256;-48
2022/12/24 03:17:09;;;;;;;7.03;2.20;;;;;;;9.44;100.00;98209.72;4198049;28;20239;-48
2022/12/24 03:19:11;;;;;;;4.20;1.90;;;;;;;9.50;100.00;98225.94;4202015;28;20313;-48
2022/12/24 03:21:19;;;;;;;5.72;2.08;;;;;;;9.56;100.00;98214.00;4217144;27;20665;-48
2022/12/24 03:23:21;;;;;;;2.58;2.38;;;;;;;9.52;100.00;98217.47;4216698;27;20662;-48
2022/12/24 03:25:24;;;;;;;3.42;1.38;;;;;;;9.54;100.00;98209.88;4221685;27;20202;-48
2022/12/24 03:27:28;;;;;;;5.25;2.03;;;;;;;9.52;100.00;98212.03;4204134;28;20232;-48
2022/12/24 03:29:29;;;;;;;4.82;1.85;;;;;;;9.50;100.00;98216.91;4189752;28;20349;-48
2022/12/24 03:31:52;;;;;;;3.03;1.65;;;;;;;9.53;100.00;98219.13;4199884;28;20278;-48
2022/12/24 03:33:54;;;;;;;4.20;1.67;;;;;;;9.59;100.00;98229.06;4186394;28;20203;-49
2022/12/24 03:35:56;;;;;;;7.65;1.77;;;;;;;9.61;100.00;98221.47;4202095;28;20244;-47
2022/12/24 03:37:57;;;;;;;21.23;2.30;;;;;;;9.61;100.00;98225.00;4197152;28;20762;-47
2022/12/24 03:39:59;;;;;;;4.45;1.65;;;;;;;9.64;100.00;98218.22;4211596;28;20242;-48
2022/12/24 03:42:01;;;;;;;8.18;2.15;;;;;;;9.60;100.00;98234.28;4204177;28;20612;-48
2022/12/24 03:44:03;;;;;;;14.93;2.25;;;;;;;9.62;100.00;98231.31;4186325;28;20256;-48
2022/12/24 03:46:05;;;;;;;6.78;2.35;;;;;;;9.68;100.00;98249.44;4203696;28;20292;-47
2022/12/24 03:48:07;;;;;;;6.45;2.13;;;;;;;9.69;100.00;98240.16;4208314;28;20226;-48
2022/12/24 03:50:10;;;;;;;6.75;2.40;;;;;;;9.66;100.00;98240.63;4198315;28;20215;-48
2022/12/24 03:52:11;;;;;;;13.25;2.33;;;;;;;9.59;100.00;98242.72;4216372;27;20309;-47
2022/12/24 03:54:13;;;;;;;5.88;2.35;;;;;;;9.64;100.00;98234.59;4200244;28;20298;-48
2022/12/24 03:56:15;;;;;;;10.85;2.72;;;;;;;9.69;100.00;98251.06;4200626;28;20230;-48
2022/12/24 03:58:16;;;;;;;3.85;2.53;;;;;;;9.66;100.00;98260.59;4201853;28;20314;-47
2022/12/24 04:00:19;;;;;;;7.70;2.38;;;;;;;9.64;100.00;98264.66;4216539;27;20213;-47
2022/12/24 04:02:21;;;;;;;9.98;2.10;;;;;;;9.77;100.00;98258.84;4216760;27;20194;-48
2022/12/24 04:04:23;;;;;;;7.63;3.00;;;;;;;9.72;100.00;98272.41;4199277;28;20867;-48
2022/12/24 04:06:24;;;;;;;6.60;2.58;;;;;;;9.78;100.00;98260.50;4197795;28;20209;-48
2022/12/24 04:08:26;;;;;;;10.85;3.25;;;;;;;9.77;100.00;98262.41;4198801;28;20630;-48
2022/12/24 04:10:28;;;;;;;11.00;1.40;;;;;;;9.77;100.00;98269.75;4214942;27;20238;-47
2022/12/24 04:12:29;;;;;;;9.25;2.53;;;;;;;9.74;100.00;98270.28;4214862;27;20249;-48
2022/12/24 04:14:31;;;;;;;2.65;1.83;;;;;;;9.72;100.00;98277.88;4201802;28;20317;-48
2022/12/24 04:16:33;;;;;;;10.35;2.30;;;;;;;9.70;100.00;98277.31;4202346;28;20289;-47
2022/12/24 04:18:35;;;;;;;5.60;1.92;;;;;;;9.66;100.00;98278.88;4216209;27;20227;-48
2022/12/24 04:20:37;;;;;;;7.15;2.20;;;;;;;9.67;100.00;98286.03;4187832;28;20225;-48
2022/12/24 04:22:39;;;;;;;3.30;1.95;;;;;;;9.69;100.00;98294.78;4197944;28;20201;-49
2022/12/24 04:24:41;;;;;;;11.55;2.30;;;;;;;9.72;100.00;98288.81;4183880;28;20219;-48
2022/12/24 04:26:43;;;;;;;7.93;2.80;;;;;;;9.72;100.00;98288.81;4199288;28;20244;-48
2022/12/24 04:28:44;;;;;;;10.10;2.80;;;;;;;9.69;100.00;98278.41;4194920;28;20867;-48
2022/12/24 04:30:46;;;;;;;7.80;2.50;;;;;;;9.70;100.00;98280.88;4215554;28;20677;-48
2022/12/24 04:32:48;;;;;;;9.95;1.70;;;;;;;9.70;100.00;98285.50;4200086;28;20222;-48
2022/12/24 04:34:49;;;;;;;9.70;2.75;;;;;;;9.70;100.00;98280.88;4214503;27;20244;-47
2022/12/24 04:36:51;;;;;;;10.77;2.63;;;;;;;9.67;100.00;98288.75;4198318;28;20910;-48
2022/12/24 04:38:53;;;;;;;10.82;1.83;;;;;;;9.71;100.00;98281.69;4212233;28;20771;-47
2022/12/24 04:41:15;;;;;;;5.05;2.00;;;;;;;9.71;100.00;98287.16;4197897;28;20283;-47
2022/12/24 04:43:24;;;;;;;7.47;2.70;;;;;;;9.74;100.00;98286.69;4216246;27;20631;-48
2022/12/24 04:45:26;;;;;;;5.95;2.10;;;;;;;9.68;100.00;98282.22;4215898;27;20213;-48
2022/12/24 04:47:28;;;;;;;6.50;1.67;;;;;;;9.71;100.00;98284.44;4196273;28;20264;-49
2022/12/24 04:49:30;;;;;;;7.65;1.77;;;;;;;9.69;100.00;98294.78;4214835;27;20304;-48
2022/12/24 04:51:31;;;;;;;8.52;3.65;;;;;;;9.72;100.00;98288.81;4187113;28;20242;-48
2022/12/24 04:53:34;;;;;;;4.88;2.28;;;;;;;9.65;100.00;98277.22;4202108;28;20711;-49
2022/12/24 04:55:35;;;;;;;4.05;2.65;;;;;;;9.71;100.00;98281.69;4214145;27;20210;-48
2022/12/24 04:57:37;;;;;;;11.63;3.60;;;;;;;9.74;100.00;98287.47;4199668;28;20199;-48
2022/12/24 04:59:39;;;;;;;6.30;2.70;;;;;;;9.70;100.00;98285.50;4198270;28;20261;-48
2022/12/24 05:01:41;;;;;;;7.03;2.35;;;;;;;9.62;100.00;98283.22;4216155;28;20214;-48
2022/12/24 05:03:43;;;;;;;6.05;1.92;;;;;;;9.65;100.00;98289.00;4180638;28;20226;-48
2022/12/24 05:05:45;;;;;;;13.43;2.20;;;;;;;9.69;100.00;98289.31;4216061;28;20234;-48
2022/12/24 05:07:46;;;;;;;10.57;2.42;;;;;;;9.76;100.00;98287.25;4215762;28;20301;-48
2022/12/24 05:09:48;;;;;;;6.80;1.85;;;;;;;9.78;100.00;98285.91;4216060;28;20202;-48
2022/12/24 05:11:50;;;;;;;3.53;3.13;;;;;;;9.78;100.00;98288.66;4201546;28;20607;-48
2022/12/24 05:13:52;;;;;;;4.40;2.53;;;;;;;9.81;100.00;98298.25;4198151;28;20226;-49
2022/12/24 05:15:54;;;;;;;5.15;1.92;;;;;;;9.78;100.00;98290.53;4200888;28;20230;-48
2022/12/24 05:17:57;;;;;;;4.93;1.90;;;;;;;9.75;100.00;98288.31;4213661;28;20256;-48
2022/12/24 05:19:58;;;;;;;12.90;2.45;;;;;;;9.76;100.00;98289.97;4197519;28;20719;-48
2022/12/24 05:26:55;;;;;;;6.85;2.60;;;;;;;9.68;100.00;98277.56;4214639;28;20233;-47
2022/12/24 05:28:58;;;;;;;4.57;2.20;;;;;;;9.75;100.00;98291.06;4196535;28;20246;-47
2022/12/24 05:31:00;;;;;;;5.88;2.60;;;;;;;9.73;100.00;98295.91;4210533;28;20297;-47
2022/12/24 05:33:02;;;;;;;5.43;3.45;;;;;;;9.66;100.00;98293.38;4198107;28;20801;-48
2022/12/24 05:35:04;;;;;;;16.15;4.30;;;;;;;9.68;100.00;98315.00;4216433;28;20729;-47
2022/12/24 05:37:06;;;;;;;6.30;2.55;;;;;;;9.66;100.00;98311.66;4200971;28;20214;-48
2022/12/24 05:39:11;;;;;;;5.10;3.17;;;;;;;9.66;100.00;98306.19;4213541;28;20238;-49
2022/12/24 05:41:16;;;;;;;9.82;3.67;;;;;;;9.68;100.00;98310.34;4186586;28;20211;-48
2022/12/24 05:43:18;;;;;;;5.85;2.97;;;;;;;9.75;100.00;98313.72;4212333;28;20209;-47
2022/12/24 05:45:20;;;;;;;12.40;2.15;;;;;;;9.69;100.00;98313.91;4203329;28;20215;-49
2022/12/24 05:47:21;;;;;;;7.45;2.40;;;;;;;9.64;100.00;98313.81;4201978;28;20242;-48
2022/12/24 05:49:23;;;;;;;7.97;3.55;;;;;;;9.66;100.00;98317.97;4200104;28;20259;-48
2022/12/24 05:51:25;;;;;;;13.68;4.07;;;;;;;9.75;100.00;98310.19;4197184;28;20362;-48
2022/12/24 05:53:29;;;;;;;5.63;2.65;;;;;;;9.74;100.00;98312.06;4182828;28;20225;-48
2022/12/24 05:55:32;;;;;;;6.35;2.53;;;;;;;9.80;100.00;98310.25;4197602;28;20206;-46
2022/12/24 05:57:33;;;;;;;6.00;1.95;;;;;;;9.78;100.00;98320.59;4203265;28;20202;-47
2022/12/24 05:59:35;;;;;;;3.38;1.75;;;;;;;9.75;100.00;98327.38;4217895;28;20249;-48
2022/12/24 06:01:37;;;;;;;14.73;3.67;;;;;;;9.75;100.00;98327.38;4199456;28;20265;-47
2022/12/24 06:03:39;;;;;;;9.00;2.45;;;;;;;9.78;100.00;98326.06;4188225;28;20750;-47
2022/12/24 06:05:41;;;;;;;15.55;3.92;;;;;;;9.78;100.00;98337.84;4201321;28;20206;-47
2022/12/24 06:07:42;;;;;;;12.30;3.83;;;;;;;9.76;100.00;98339.16;4197669;28;20205;-49
2022/12/24 06:09:44;;;;;;;6.80;2.47;;;;;;;9.72;100.00;98341.56;4213489;28;20639;-47
2022/12/24 06:11:46;;;;;;;8.05;2.97;;;;;;;9.71;100.00;98341.81;4199873;28;20245;-48
2022/12/24 06:13:48;;;;;;;6.57;1.83;;;;;;;9.70;100.00;98341.00;4200965;28;20801;-48
2022/12/24 06:15:53;;;;;;;14.43;3.10;;;;;;;9.73;100.00;98345.09;4189789;28;20249;-46
2022/12/24 06:17:54;;;;;;;11.18;3.55;;;;;;;9.66;100.00;98341.72;4216345;27;20722;-48
2022/12/24 06:19:56;;;;;;;12.43;2.65;;;;;;;9.61;100.00;98344.38;4202491;28;20235;-48
2022/12/24 06:21:58;;;;;;;4.53;2.05;;;;;;;9.65;100.00;98353.72;4220280;27;20214;-48
2022/12/24 06:24:00;;;;;;;3.75;1.95;;;;;;;9.63;100.00;98362.16;4202048;28;20257;-48
2022/12/24 06:26:03;;;;;;;9.65;3.10;;;;;;;9.61;100.00;98358.03;4184052;28;20211;-48
2022/12/24 06:28:04;;;;;;;4.90;2.92;;;;;;;9.66;100.00;98363.56;4201071;28;20313;-48
2022/12/24 06:30:08;;;;;;;2.85;1.70;;;;;;;9.64;100.00;98363.00;4217847;27;20561;-47
2022/12/24 06:32:10;;;;;;;9.10;2.13;;;;;;;9.63;100.00;98361.34;4205238;28;20318;-47
2022/12/24 06:34:11;;;;;;;4.78;2.75;;;;;;;9.71;100.00;98369.13;4205202;28;20207;-48
2022/12/24 06:36:18;;;;;;;3.33;2.25;;;;;;;9.73;100.00;98345.94;4220166;27;20230;-48
2022/12/24 06:38:20;;;;;;;5.88;2.55;;;;;;;9.70;100.00;98351.09;4200909;28;20231;-47
2022/12/24 06:40:22;;;;;;;5.68;3.35;;;;;;;9.66;100.00;98358.09;4202410;28;20335;-47
2022/12/24 06:42:23;;;;;;;11.38;2.63;;;;;;;9.70;100.00;98364.75;4203439;28;20199;-48
2022/12/24 06:44:25;;;;;;;6.45;2.67;;;;;;;9.69;100.00;98355.69;4189583;28;20326;-48
2022/12/24 06:46:27;;;;;;;15.57;2.47;;;;;;;9.69;100.00;98372.09;4212895;28;20343;-48
2022/12/24 06:48:29;;;;;;;6.05;2.40;;;;;;;9.66;100.00;98366.31;4202918;28;20946;-48
2022/12/24 06:50:32;;;;;;;14.13;2.42;;;;;;;9.66;100.00;98379.97;4198353;28;20318;-47
2022/12/24 06:52:33;;;;;;;8.50;3.03;;;;;;;9.76;100.00;98380.16;4218012;27;20214;-48
2022/12/24 06:54:35;;;;;;;7.78;2.42;;;;;;;9.70;100.00;98371.03;4202803;28;20212;-49
2022/12/24 06:56:37;;;;;;;6.90;2.30;;;;;;;9.70;100.00;98384.72;4203000;28;20319;-47
2022/12/24 06:58:39;;;;;;;10.68;4.45;;;;;;;9.66;100.00;98388.16;4202240;28;20227;-48
2022/12/24 07:00:41;;;;;;;9.52;3.30;;;;;;;9.65;100.00;98378.31;4204983;28;20248;-48
2022/12/24 07:02:43;;;;;;;5.45;1.90;;;;;;;9.68;100.00;98386.84;4197924;28;20325;-48
2022/12/24 07:04:45;;;;;;;12.73;2.42;;;;;;;9.68;100.00;98380.56;4206350;28;20633;-47
2022/12/24 07:06:47;;;;;;;7.72;2.67;;;;;;;9.63;100.00;98377.75;4218692;27;20799;-47
2022/12/24 07:08:49;;;;;;;7.65;1.55;;;;;;;9.60;100.00;98373.59;4200848;28;20309;-48
2022/12/24 07:10:51;;;;;;;16.10;3.58;;;;;;;9.58;100.00;98374.91;4217710;27;20241;-47
2022/12/24 07:12:55;;;;;;;9.93;3.05;;;;;;;9.58;100.00;98363.97;4217102;27;20702;-47
2022/12/24 07:15:07;;;;;;;10.50;2.78;;;;;;;9.58;100.00;98369.44;4217665;27;20564;-47
2022/12/24 07:17:11;;;;;;;6.53;2.78;;;;;;;9.55;100.00;98380.88;4200333;28;20214;-47
2022/12/24 07:19:13;;;;;;;10.00;3.30;;;;;;;9.51;100.00;98382.44;4199160;28;20227;-47
2022/12/24 07:21:15;;;;;;;8.25;2.63;;;;;;;9.57;100.00;98378.72;4218792;27;20684;-47
2022/12/24 07:23:16;;;;;;;5.93;3.05;;;;;;;9.55;100.00;98381.69;4216809;27;20205;-47
2022/12/24 07:25:18;;;;;;;6.63;2.83;;;;;;;9.57;100.00;98395.09;4218038;27;20206;-47
2022/12/24 07:27:20;;;;;;;10.00;2.65;;;;;;;9.52;100.00;98390.38;4216642;27;20199;-47
2022/12/24 07:29:22;;;;;;;5.30;2.17;;;;;;;9.50;100.00;98386.25;4216806;28;20223;-48
2022/12/24 07:31:23;;;;;;;4.25;2.55;;;;;;;9.50;100.00;98384.34;4214376;27;20283;-48
2022/12/24 07:33:26;;;;;;;19.80;2.55;;;;;;;9.52;100.00;98397.75;4199284;28;20306;-47
2022/12/24 07:35:27;;;;;;;8.68;2.80;;;;;;;9.52;100.00;98408.66;4187987;28;20250;-48
2022/12/24 07:37:29;;;;;;;7.13;1.90;;;;;;;9.58;100.00;98389.41;4203098;28;20218;-48
2022/12/24 07:39:31;;;;;;;8.98;2.13;;;;;;;9.53;100.00;98400.25;4201560;28;20703;-47
2022/12/24 07:41:32;;;;;;;11.80;3.40;;;;;;;9.60;100.00;98394.59;4196805;28;20202;-47
2022/12/24 07:43:42;;;;;;;5.55;2.28;;;;;;;9.57;100.00;98401.41;4188413;28;20195;-47
2022/12/24 07:45:44;;;;;;;12.50;3.28;;;;;;;9.52;100.00;98411.41;4199415;28;20270;-48
2022/12/24 07:47:45;;;;;;;7.43;2.15;;;;;;;9.59;100.00;98403.88;4201567;28;20242;-48
2022/12/24 07:49:47;;;;;;;7.38;2.67;;;;;;;9.63;100.00;98413.25;4190559;28;20622;-48
2022/12/24 07:51:49;;;;;;;23.52;2.08;;;;;;;9.66;100.00;98421.78;4203534;28;20202;-48
2022/12/24 07:53:50;;;;;;;16.15;3.92;;;;;;;9.66;100.00;98405.38;4198863;28;20265;-48
2022/12/24 07:55:53;;;;;;;5.47;3.47;;;;;;;9.68;100.00;98435.19;4201119;28;20254;-49
2022/12/24 07:57:54;;;;;;;11.18;3.08;;;;;;;9.75;100.00;98419.47;4204197;28;20215;-48
2022/12/24 07:59:56;;;;;;;8.60;3.03;;;;;;;9.76;100.00;98426.59;4186075;28;20221;-47
2022/12/24 08:01:58;;;;;;;6.75;2.20;;;;;;;9.76;100.00;98432.06;4216087;27;20230;-48
2022/12/24 08:04:00;;;;;;;9.15;3.28;;;;;;;9.73;100.00;98440.72;4201455;28;20240;-48
2022/12/24 08:06:02;;;;;;;11.18;3.33;;;;;;;9.81;100.00;98437.63;4220355;27;20668;-48
2022/12/24 08:08:03;;;;;;;6.13;2.15;;;;;;;9.75;100.00;98441.34;4202153;28;20269;-47
2022/12/24 08:10:06;;;;;;;10.10;1.88;;;;;;;9.71;100.00;98445.63;4218653;28;20203;-48
2022/12/24 08:12:09;;;;;;;4.75;1.85;;;;;;;9.80;100.00;98433.19;4200484;28;20198;-48
2022/12/24 08:14:11;;;;;;;13.48;2.38;;;;;;;9.75;100.00;98435.88;4218224;27;20337;-48
2022/12/24 08:16:13;;;;;;;11.90;2.83;;;;;;;9.77;100.00;98433.72;4198917;28;20203;-48
2022/12/24 08:18:14;;;;;;;6.63;2.80;;;;;;;9.79;100.00;98431.56;4186647;28;20231;-48
2022/12/24 08:20:16;;;;;;;5.18;2.22;;;;;;;9.85;100.00;98430.56;4187465;28;20207;-47
2022/12/24 08:22:18;;;;;;;11.63;3.28;;;;;;;9.79;100.00;98437.84;4204020;28;20256;-47
2022/12/24 08:24:20;;;;;;;6.43;2.30;;;;;;;9.87;100.00;98440.19;4204183;28;20241;-47
2022/12/24 08:26:21;;;;;;;5.88;2.10;;;;;;;9.92;100.00;98431.22;4200365;28;20312;-49
2022/12/24 08:28:23;;;;;;;6.25;2.58;;;;;;;9.86;100.00;98432.22;4181367;28;20390;-48
2022/12/24 08:30:25;;;;;;;3.70;2.08;;;;;;;9.88;100.00;98435.56;4200217;28;20221;-47
2022/12/24 08:32:27;;;;;;;4.57;2.67;;;;;;;9.83;100.00;98444.47;4215003;27;20797;-48
2022/12/24 08:34:28;;;;;;;10.32;3.08;;;;;;;9.89;100.00;98448.13;4198030;28;20230;-47
2022/12/24 08:36:30;;;;;;;10.45;2.58;;;;;;;9.88;100.00;98460.16;4214896;28;20253;-48
2022/12/24 08:38:32;;;;;;;10.18;2.47;;;;;;;9.89;100.00;98453.59;4214711;28;20271;-47
2022/12/24 08:40:34;;;;;;;3.60;2.22;;;;;;;9.92;100.00;98469.50;4188191;28;20238;-48
2022/12/24 08:42:39;;;;;;;11.63;2.80;;;;;;;9.88;100.00;98468.34;4199753;28;20238;-47
2022/12/24 08:44:41;;;;;;;11.77;2.58;;;;;;;9.87;100.00;98455.75;4199386;28;20198;-47
2022/12/24 08:46:42;;;;;;;11.23;3.35;;;;;;;9.89;100.00;98470.00;4197731;28;20611;-48
2022/12/24 08:48:44;;;;;;;11.20;2.90;;;;;;;9.88;100.00;98473.81;4181379;28;21031;-48
2022/12/24 08:50:46;;;;;;;7.50;2.83;;;;;;;9.90;100.00;98466.19;4200060;28;20690;-47
2022/12/24 08:52:48;;;;;;;8.52;3.47;;;;;;;9.91;100.00;98468.69;4215382;28;20580;-48
2022/12/24 08:54:49;;;;;;;8.30;3.03;;;;;;;9.96;100.00;98470.66;4199214;28;20234;-47
2022/12/24 08:56:51;;;;;;;6.88;2.67;;;;;;;9.94;100.00;98461.91;4216890;28;20654;-48
2022/12/24 08:58:53;;;;;;;13.55;4.32;;;;;;;10.00;100.00;98469.94;4202554;28;20230;-47
2022/12/24 09:00:55;;;;;;;6.82;2.47;;;;;;;9.96;100.00;98476.94;4203179;28;20207;-48
2022/12/24 09:02:57;;;;;;;14.18;3.53;;;;;;;10.00;100.00;98469.09;4198602;28;20671;-48
2022/12/24 09:04:59;;;;;;;7.28;2.13;;;;;;;10.01;100.00;98468.03;4199092;28;20203;-48
2022/12/24 09:07:00;;;;;;;16.35;2.92;;;;;;;10.04;100.00;98470.28;4197725;28;20248;-48
2022/12/24 09:09:03;;;;;;;14.75;3.38;;;;;;;9.98;100.00;98471.25;4186363;28;20698;-48
2022/12/24 09:11:07;;;;;;;11.95;3.17;;;;;;;9.98;100.00;98485.75;4198066;28;20246;-48
2022/12/24 09:13:09;;;;;;;12.27;4.05;;;;;;;10.11;100.00;98492.81;4196919;28;20669;-47
2022/12/24 09:15:12;;;;;;;5.47;2.83;;;;;;;10.10;100.00;98488.44;4196573;28;20245;-48
2022/12/24 09:17:14;;;;;;;11.20;3.25;;;;;;;10.13;100.00;98505.19;4202348;28;20206;-48
2022/12/24 09:19:16;;;;;;;11.73;2.22;;;;;;;10.21;100.00;98499.28;4182144;28;20311;-48
2022/12/24 09:21:18;;;;;;;9.80;2.72;;;;;;;10.20;100.00;98496.78;4184002;28;20211;-49
2022/12/24 09:23:20;;;;;;;9.48;2.42;;;;;;;10.30;100.00;98508.75;4199969;28;20239;-51
2022/12/24 09:25:21;;;;;;;12.02;2.80;;;;;;;10.31;100.00;98501.38;4215006;28;20252;-47
2022/12/24 09:27:23;;;;;;;18.25;2.50;;;;;;;10.34;100.00;98501.69;4200146;28;20259;-47
2022/12/24 09:29:25;;;;;;;7.05;2.75;;;;;;;10.41;100.00;98517.97;4200477;28;20305;-48
2022/12/24 09:31:27;;;;;;;9.02;2.47;;;;;;;10.42;100.00;98508.66;4190217;28;20204;-48
2022/12/24 09:33:32;;;;;;;6.93;2.90;;;;;;;10.35;100.00;98518.94;4197201;28;20243;-48
2022/12/24 09:35:37;;;;;;;19.58;3.80;;;;;;;10.39;100.00;98529.13;4205584;28;20245;-48
2022/12/24 09:37:38;;;;;;;4.20;2.25;;;;;;;10.40;100.00;98524.47;4197935;28;20210;-49
2022/12/24 09:39:40;;;;;;;16.88;4.85;;;;;;;10.40;100.00;98536.25;4198767;28;20864;-47
2022/12/24 09:42:00;;;;;;;8.15;4.07;;;;;;;10.39;100.00;98536.50;4188951;28;20676;-48
2022/12/24 09:44:26;;;;;;;8.63;2.50;;;;;;;10.51;100.00;98537.25;4202016;28;20257;-47
2022/12/24 09:46:32;;;;;;;7.95;3.30;;;;;;;10.49;100.00;98528.47;4209111;27;20230;-48
2022/12/24 09:48:37;;;;;;;6.03;2.45;;;;;;;10.42;100.00;98528.63;4222977;28;20236;-47
2022/12/24 09:50:48;;;;;;;9.70;2.25;;;;;;;10.48;100.00;98529.56;4219798;27;20312;-47